Time;durP1;ratioP1;P1;durP2;ratioP2;P2;SDS_P1;SDS_P2;PMS_P1;PMS_P2;Temp;Humidity;BMP_temperature;BMP_pressure;BME280_temperature;BME280_humidity;BME280_pressure;Samples;Min_cycle;Max_cycle;Signal;HPM_P1;HPM_P2
2023/08/31 00:01:38;;;;;;;2.28;1.45;;;;;;;16.51;59.47;100799.72;5101135;28;20055;-56
2023/08/31 00:04:10;;;;;;;2.92;1.60;;;;;;;16.47;59.46;100783.16;5102045;28;20044;-56
2023/08/31 00:06:39;;;;;;;3.10;1.40;;;;;;;16.48;59.43;100790.22;5100181;28;20048;-55
2023/08/31 00:09:09;;;;;;;2.58;1.20;;;;;;;16.47;59.55;100790.47;5102627;28;20044;-56
2023/08/31 00:11:37;;;;;;;2.30;1.42;;;;;;;16.46;59.50;100786.94;5103739;28;20047;-56
2023/08/31 00:14:06;;;;;;;3.33;1.52;;;;;;;16.46;59.34;100791.56;5103141;28;20040;-56
2023/08/31 00:16:34;;;;;;;3.55;1.58;;;;;;;16.45;59.46;100789.94;5103526;28;20047;-56
2023/08/31 00:19:02;;;;;;;2.13;1.25;;;;;;;16.44;59.46;100797.25;5100218;28;20044;-56
2023/08/31 00:21:30;;;;;;;2.38;1.50;;;;;;;16.33;59.58;100775.75;5101523;28;20052;-56
2023/08/31 00:23:58;;;;;;;3.00;1.40;;;;;;;16.43;59.55;100789.38;5103259;28;20067;-56
2023/08/31 00:26:26;;;;;;;2.58;1.23;;;;;;;16.42;59.54;100793.97;5101734;28;20055;-55
2023/08/31 00:28:54;;;;;;;3.53;1.23;;;;;;;16.41;59.55;100797.78;5099789;28;20477;-56
2023/08/31 00:31:23;;;;;;;3.97;1.27;;;;;;;16.40;59.50;100789.91;5098344;28;20082;-56
2023/08/31 00:33:51;;;;;;;4.68;1.48;;;;;;;16.38;59.69;100792.06;5097519;28;20044;-56
2023/08/31 00:36:19;;;;;;;3.38;1.65;;;;;;;16.38;59.63;100792.06;5098309;28;20048;-57
2023/08/31 00:38:47;;;;;;;3.13;1.52;;;;;;;16.37;59.64;100788.53;5097508;28;20047;-55
2023/08/31 00:41:14;;;;;;;1.95;1.45;;;;;;;16.35;59.61;100787.97;5101923;28;20060;-57
2023/08/31 00:43:42;;;;;;;2.75;1.50;;;;;;;16.34;59.70;100789.03;5102435;28;20051;-55
2023/08/31 00:46:10;;;;;;;2.92;1.45;;;;;;;16.34;59.70;100791.75;5097260;28;20124;-56
2023/08/31 00:48:39;;;;;;;3.47;1.52;;;;;;;16.33;59.65;100783.88;5098005;28;20099;-56
2023/08/31 00:51:08;;;;;;;3.03;1.58;;;;;;;16.27;59.71;100777.59;5099342;28;20071;-57
2023/08/31 00:53:36;;;;;;;3.25;1.35;;;;;;;16.31;59.74;100786.03;5098432;28;20063;-56
2023/08/31 00:56:04;;;;;;;1.50;1.23;;;;;;;16.30;59.65;100778.97;5102777;28;20094;-56
2023/08/31 00:58:32;;;;;;;7.10;1.30;;;;;;;16.31;59.69;100783.31;5099998;28;20059;-56
2023/08/31 01:01:07;;;;;;;2.20;1.63;;;;;;;16.30;59.67;100784.41;5100106;28;20056;-56
2023/08/31 01:03:44;;;;;;;5.33;1.40;;;;;;;16.29;59.72;100780.88;5103018;28;20051;-56
2023/08/31 01:06:15;;;;;;;;;;;;;;;16.27;59.79;100783.84;5101063;28;20059;-56
2023/08/31 01:08:53;;;;;;;2.13;1.40;;;;;;;16.26;59.71;100779.50;5099778;28;19973;-56
2023/08/31 01:11:31;;;;;;;4.75;1.73;;;;;;;16.27;59.64;100780.31;5097794;28;20171;-56
2023/08/31 01:14:04;;;;;;;3.40;1.75;;;;;;;16.26;59.52;100781.41;5099691;28;20055;-55
2023/08/31 01:16:35;;;;;;;2.47;1.40;;;;;;;16.24;59.65;100778.94;5096863;28;20051;-57
2023/08/31 01:19:11;;;;;;;2.55;1.50;;;;;;;16.24;59.63;100778.94;5097326;28;20055;-57
2023/08/31 01:21:43;;;;;;;2.95;1.40;;;;;;;16.24;59.72;100772.69;5096344;28;20052;-56
2023/08/31 01:24:13;;;;;;;2.38;1.60;;;;;;;16.23;59.75;100776.50;5100608;28;20101;-56
2023/08/31 01:26:43;;;;;;;3.60;1.60;;;;;;;16.22;59.71;100772.97;5102670;28;20511;-55
2023/08/31 01:29:11;;;;;;;2.38;1.48;;;;;;;16.21;59.81;100782.19;5100253;28;20048;-56
2023/08/31 01:31:43;;;;;;;2.92;1.65;;;;;;;16.19;59.77;100775.38;5100938;28;20044;-56
2023/08/31 01:34:11;;;;;;;3.03;1.52;;;;;;;16.19;59.78;100769.97;5099827;28;20432;-56
2023/08/31 01:36:45;;;;;;;3.45;1.60;;;;;;;16.17;59.52;100781.06;5099830;28;20048;-57
2023/08/31 01:39:19;;;;;;;3.63;1.58;;;;;;;16.13;59.84;100773.72;5096722;28;20081;-56
2023/08/31 01:41:52;;;;;;;2.50;1.70;;;;;;;16.18;59.72;100774.56;5094135;28;20044;-56
2023/08/31 01:44:21;;;;;;;2.22;1.70;;;;;;;16.17;59.68;100788.38;5097556;28;20135;-57
2023/08/31 01:46:54;;;;;;;2.20;1.40;;;;;;;16.16;59.70;100793.00;5095638;28;20040;-57
2023/08/31 01:49:22;;;;;;;3.53;1.52;;;;;;;16.09;59.75;100784.25;5099201;28;20094;-57
2023/08/31 01:51:50;;;;;;;2.08;1.52;;;;;;;16.12;59.92;100789.16;5101513;28;20400;-57
2023/08/31 01:54:19;;;;;;;2.05;1.50;;;;;;;16.13;59.76;100789.97;5099956;28;20067;-57
2023/08/31 01:56:47;;;;;;;4.85;1.77;;;;;;;16.10;59.92;100788.59;5102425;28;20070;-56
2023/08/31 01:59:15;;;;;;;2.55;1.67;;;;;;;16.10;59.92;100787.78;5094694;28;20544;-57
2023/08/31 02:01:42;;;;;;;5.45;1.60;;;;;;;16.10;59.85;100790.50;5100448;28;20044;-57
2023/08/31 02:04:10;;;;;;;2.38;1.60;;;;;;;16.08;59.75;100792.66;5099992;28;20092;-56
2023/08/31 02:06:38;;;;;;;2.00;1.60;;;;;;;16.08;59.85;100796.19;5099973;28;20056;-58
2023/08/31 02:09:06;;;;;;;2.95;1.60;;;;;;;16.07;59.86;100793.72;5100055;28;20068;-57
2023/08/31 02:11:37;;;;;;;3.78;1.90;;;;;;;16.07;59.84;100793.72;5100294;28;20105;-57
2023/08/31 02:14:05;;;;;;;2.05;1.60;;;;;;;16.08;59.89;100795.38;5098261;28;20135;-57
2023/08/31 02:16:33;;;;;;;4.25;1.80;;;;;;;16.07;59.74;100794.53;5094145;28;20112;-56
2023/08/31 02:19:01;;;;;;;2.22;1.67;;;;;;;16.06;59.84;100802.94;5099182;28;20047;-57
2023/08/31 02:21:29;;;;;;;3.70;1.60;;;;;;;16.05;59.92;100799.41;5098756;28;20044;-57
2023/08/31 02:23:57;;;;;;;9.02;2.40;;;;;;;16.04;60.04;100802.38;5097377;28;20047;-57
2023/08/31 02:26:24;;;;;;;3.78;1.90;;;;;;;16.02;59.90;100808.06;5101651;28;20105;-58
2023/08/31 02:28:54;;;;;;;3.60;1.70;;;;;;;16.01;60.09;100809.13;5098631;28;20074;-57
2023/08/31 02:31:21;;;;;;;2.40;1.38;;;;;;;16.00;60.11;100810.22;5094903;28;20052;-58
2023/08/31 02:33:49;;;;;;;2.78;1.60;;;;;;;15.98;60.35;100806.13;5097464;28;20434;-57
2023/08/31 02:36:17;;;;;;;3.05;1.70;;;;;;;15.96;60.07;100803.66;5100493;28;20048;-58
2023/08/31 02:38:44;;;;;;;3.03;1.55;;;;;;;15.95;60.07;100807.47;5099969;28;20052;-57
2023/08/31 02:41:12;;;;;;;3.13;1.80;;;;;;;15.94;60.18;100801.22;5097999;28;20074;-57
2023/08/31 02:43:40;;;;;;;2.67;1.83;;;;;;;15.94;60.32;100801.22;5098770;28;20093;-56
2023/08/31 02:46:09;;;;;;;4.10;1.83;;;;;;;15.94;60.19;100798.50;5095696;28;20051;-56
2023/08/31 02:48:37;;;;;;;2.88;1.52;;;;;;;15.93;60.22;100804.19;5098614;28;20040;-56
2023/08/31 02:51:05;;;;;;;2.08;1.35;;;;;;;15.93;60.26;100796.06;5096090;28;20094;-57
2023/08/31 02:53:33;;;;;;;3.30;1.67;;;;;;;15.93;60.19;100796.06;5100234;28;20066;-57
2023/08/31 02:56:01;;;;;;;3.08;1.60;;;;;;;15.91;60.34;100795.50;5095734;28;20051;-57
2023/08/31 02:58:29;;;;;;;3.08;1.95;;;;;;;15.87;60.24;100797.09;5101164;28;20040;-56
2023/08/31 03:00:57;;;;;;;3.97;1.70;;;;;;;15.88;60.37;100810.38;5095393;28;20063;-57
2023/08/31 03:03:26;;;;;;;3.65;1.58;;;;;;;15.89;60.38;100808.50;5097927;28;20115;-57
2023/08/31 03:05:56;;;;;;;2.97;1.50;;;;;;;15.89;60.17;100805.78;5098158;28;20324;-57
2023/08/31 03:08:24;;;;;;;4.22;1.92;;;;;;;15.88;60.29;100809.56;5099162;28;20052;-56
2023/08/31 03:10:53;;;;;;;1.98;1.25;;;;;;;15.86;60.43;100807.13;5095708;28;20093;-56
2023/08/31 03:13:20;;;;;;;5.07;1.58;;;;;;;15.85;60.28;100807.38;5097719;28;20147;-57
2023/08/31 03:15:48;;;;;;;3.42;1.48;;;;;;;15.84;60.33;100805.72;5093996;28;20040;-57
2023/08/31 03:18:16;;;;;;;2.85;1.65;;;;;;;15.84;60.43;100811.16;5096436;28;20074;-57
2023/08/31 03:20:45;;;;;;;2.53;1.67;;;;;;;15.84;60.13;100808.44;5095858;28;20118;-57
2023/08/31 03:23:14;;;;;;;5.15;1.88;;;;;;;15.83;60.38;100810.34;5099657;28;20146;-57
2023/08/31 03:25:42;;;;;;;3.65;1.88;;;;;;;15.83;60.39;100809.53;5097604;28;20059;-56
2023/08/31 03:28:10;;;;;;;2.95;2.25;;;;;;;15.82;60.21;100806.00;5099027;28;20074;-56
2023/08/31 03:30:38;;;;;;;4.07;1.88;;;;;;;15.83;60.38;100801.38;5095340;28;20040;-56
2023/08/31 03:33:06;;;;;;;2.88;1.45;;;;;;;15.82;60.31;100806.00;5097709;28;20091;-56
2023/08/31 03:35:34;;;;;;;3.88;2.28;;;;;;;15.82;60.42;100805.19;5097510;28;20044;-57
2023/08/31 03:38:03;;;;;;;3.78;2.10;;;;;;;15.80;60.36;100810.03;5097479;28;20746;-56
2023/08/31 03:40:32;;;;;;;2.83;1.80;;;;;;;15.79;60.42;100806.50;5098620;28;20052;-57
2023/08/31 03:43:00;;;;;;;3.83;2.00;;;;;;;15.78;60.38;100801.34;5102475;28;20051;-57
2023/08/31 03:45:27;;;;;;;3.50;1.77;;;;;;;15.74;60.48;100798.34;5098700;28;20048;-57
2023/08/31 03:47:55;;;;;;;3.63;1.70;;;;;;;15.77;60.44;100797.81;5100461;28;20051;-56
2023/08/31 03:50:23;;;;;;;3.58;2.20;;;;;;;15.76;60.40;100800.78;5100864;28;20044;-56
2023/08/31 03:52:51;;;;;;;3.70;1.52;;;;;;;15.73;60.47;100794.00;5103661;28;20048;-57
2023/08/31 03:55:20;;;;;;;5.75;2.38;;;;;;;15.74;60.52;100797.50;5099185;28;20051;-57
2023/08/31 03:57:48;;;;;;;4.45;2.17;;;;;;;15.74;60.34;100805.63;5104723;28;20071;-57
2023/08/31 04:00:18;;;;;;;2.88;1.92;;;;;;;15.72;60.57;100797.78;5100242;28;20143;-57
2023/08/31 04:02:46;;;;;;;2.95;1.75;;;;;;;15.70;60.61;100797.22;5104284;28;20067;-57
2023/08/31 04:05:15;;;;;;;3.13;1.77;;;;;;;15.71;60.46;100801.56;5101284;28;20058;-57
2023/08/31 04:07:42;;;;;;;2.97;1.67;;;;;;;15.71;60.51;100798.03;5101652;28;20084;-57
2023/08/31 04:10:10;;;;;;;5.60;2.28;;;;;;;15.70;60.52;100807.22;5100673;28;20051;-57
2023/08/31 04:12:39;;;;;;;3.15;1.90;;;;;;;15.69;60.62;100803.69;5100541;28;20353;-57
2023/08/31 04:15:09;;;;;;;3.78;1.67;;;;;;;15.59;60.57;100796.31;5100371;28;20048;-57
2023/08/31 04:17:37;;;;;;;7.45;2.20;;;;;;;15.69;60.65;100816.44;5102143;28;20087;-57
2023/08/31 04:20:06;;;;;;;3.35;1.95;;;;;;;15.68;60.41;100822.94;5100577;28;20044;-56
2023/08/31 04:22:35;;;;;;;3.33;1.90;;;;;;;15.68;60.35;100820.22;5100486;28;20040;-57
2023/08/31 04:25:04;;;;;;;4.22;1.90;;;;;;;15.66;60.53;100820.47;5101825;28;20108;-57
2023/08/31 04:27:32;;;;;;;3.55;1.92;;;;;;;15.66;60.60;100817.75;5097087;28;20058;-57
2023/08/31 04:30:02;;;;;;;3.03;1.95;;;;;;;15.42;60.51;100783.94;5101226;28;20089;-56
2023/08/31 04:32:30;;;;;;;3.78;2.17;;;;;;;15.66;60.49;100822.38;5103944;28;20075;-57
2023/08/31 04:34:58;;;;;;;5.82;1.77;;;;;;;15.63;60.68;100823.69;5100937;28;21512;-56
2023/08/31 04:37:26;;;;;;;5.70;2.30;;;;;;;15.61;60.74;100828.56;5099662;28;20059;-57
2023/08/31 04:39:53;;;;;;;6.13;2.10;;;;;;;15.60;60.75;100832.38;5096662;28;20093;-56
2023/08/31 04:42:21;;;;;;;4.60;1.80;;;;;;;15.61;60.94;100828.56;5100437;28;20078;-57
2023/08/31 04:44:49;;;;;;;3.45;1.80;;;;;;;15.59;60.58;100828.84;5100610;28;20052;-57
2023/08/31 04:47:18;;;;;;;2.72;1.73;;;;;;;15.59;60.89;100838.84;5091637;28;20124;-57
2023/08/31 04:49:46;;;;;;;3.33;1.90;;;;;;;15.58;60.92;100834.50;5094784;28;20048;-57
2023/08/31 04:52:14;;;;;;;4.75;2.67;;;;;;;15.58;60.71;100845.34;5100765;28;20044;-56
2023/08/31 04:54:42;;;;;;;6.45;2.15;;;;;;;15.57;60.77;100839.09;5092541;28;20060;-55
2023/08/31 04:57:10;;;;;;;3.38;1.85;;;;;;;15.56;60.72;100840.16;5099288;28;20052;-56
2023/08/31 04:59:38;;;;;;;3.20;1.67;;;;;;;15.57;60.74;100843.72;5101193;28;20112;-57
2023/08/31 05:02:05;;;;;;;2.55;1.75;;;;;;;15.56;60.83;100844.75;5095817;28;20044;-57
2023/08/31 05:04:34;;;;;;;6.70;2.38;;;;;;;15.54;60.63;100844.19;5098749;28;20059;-57
2023/08/31 05:07:03;;;;;;;6.47;2.30;;;;;;;15.53;60.80;100848.78;5101120;28;20076;-57
2023/08/31 05:09:32;;;;;;;3.40;1.92;;;;;;;15.53;60.80;100848.78;5101500;28;20120;-57
2023/08/31 05:11:59;;;;;;;3.15;1.90;;;;;;;15.51;60.87;100847.41;5098368;28;20085;-56
2023/08/31 05:14:27;;;;;;;4.78;2.22;;;;;;;15.49;60.90;100850.38;5099352;28;20044;-55
2023/08/31 05:16:55;;;;;;;3.67;2.03;;;;;;;15.52;60.79;100860.69;5103251;28;20040;-56
2023/08/31 05:19:23;;;;;;;2.90;2.03;;;;;;;15.51;60.92;100858.25;5103268;28;20102;-58
2023/08/31 05:21:53;;;;;;;6.68;2.22;;;;;;;15.52;60.72;100868.00;5102644;28;20044;-56
2023/08/31 05:24:21;;;;;;;4.10;1.83;;;;;;;15.50;60.86;100870.16;5102399;28;20389;-57
2023/08/31 05:26:50;;;;;;;6.43;2.05;;;;;;;15.49;60.86;100868.50;5101633;28;20040;-57
2023/08/31 05:29:18;;;;;;;4.90;2.38;;;;;;;15.51;60.75;100874.50;5101338;28;20109;-57
2023/08/31 05:31:46;;;;;;;1.95;1.50;;;;;;;15.51;60.79;100879.91;5100740;28;20044;-55
2023/08/31 05:34:17;;;;;;;5.05;1.90;;;;;;;15.50;60.80;100876.38;5097799;28;20064;-56
2023/08/31 05:36:45;;;;;;;5.95;2.50;;;;;;;15.49;60.83;100877.44;5102743;28;20040;-57
2023/08/31 05:39:16;;;;;;;6.15;2.05;;;;;;;15.48;60.98;100881.22;5099692;28;20082;-58
2023/08/31 05:41:43;;;;;;;4.10;2.05;;;;;;;15.47;60.86;100886.91;5095765;28;20446;-58
2023/08/31 05:44:11;;;;;;;3.63;1.63;;;;;;;15.44;61.03;100877.41;5096567;28;20052;-57
2023/08/31 05:46:40;;;;;;;5.47;1.98;;;;;;;15.46;61.06;100893.38;4745144;28;9999756;-57
2023/08/31 05:49:08;;;;;;;3.08;1.92;;;;;;;15.44;61.01;100890.94;5098392;28;20052;-56
2023/08/31 05:51:36;;;;;;;4.53;2.20;;;;;;;15.45;60.94;100899.88;5098026;28;20052;-56
2023/08/31 05:54:04;;;;;;;4.03;2.10;;;;;;;15.45;61.14;100894.47;5097674;28;20090;-57
2023/08/31 05:56:33;;;;;;;4.15;1.67;;;;;;;15.43;61.03;100894.72;5097655;28;20093;-57
2023/08/31 05:59:02;;;;;;;3.10;1.80;;;;;;;15.43;61.09;100892.00;5094992;28;20526;-58
2023/08/31 06:01:29;;;;;;;3.67;2.03;;;;;;;15.42;61.35;100893.06;5096439;28;20048;-57
2023/08/31 06:03:57;;;;;;;3.60;2.08;;;;;;;15.41;61.46;100894.16;5096484;28;20052;-56
2023/08/31 06:06:25;;;;;;;4.38;2.10;;;;;;;15.41;61.58;100898.75;5096191;28;20040;-57
2023/08/31 06:08:54;;;;;;;3.95;1.85;;;;;;;15.41;61.60;100893.34;5092534;28;20358;-58
2023/08/31 06:11:22;;;;;;;8.05;2.10;;;;;;;15.42;62.05;100905.81;5098054;28;20408;-58
2023/08/31 06:13:51;;;;;;;6.55;2.70;;;;;;;15.45;62.25;100905.28;5102100;28;20063;-58
2023/08/31 06:16:19;;;;;;;6.68;2.47;;;;;;;15.48;62.17;100902.91;5100684;28;20078;-58
2023/08/31 06:18:47;;;;;;;2.65;1.90;;;;;;;15.50;62.09;100908.06;5103180;28;20047;-57
2023/08/31 06:21:14;;;;;;;4.50;1.73;;;;;;;15.51;61.87;100913.22;5100516;28;20044;-58
2023/08/31 06:23:42;;;;;;;9.50;2.78;;;;;;;15.52;61.78;100916.75;5101665;28;20048;-58
2023/08/31 06:26:10;;;;;;;6.40;1.80;;;;;;;15.51;61.92;100915.94;5097471;28;20083;-58
2023/08/31 06:28:38;;;;;;;6.78;2.22;;;;;;;15.53;62.12;100921.09;5099654;28;20056;-58
2023/08/31 06:31:07;;;;;;;3.28;1.88;;;;;;;15.55;62.11;100924.38;5102112;28;20048;-58
2023/08/31 06:33:35;;;;;;;8.88;2.28;;;;;;;15.57;62.26;100924.97;5102005;28;20044;-58
2023/08/31 06:36:03;;;;;;;4.55;2.10;;;;;;;15.58;62.17;100916.59;5100870;28;20274;-58
2023/08/31 06:38:30;;;;;;;4.45;2.40;;;;;;;15.60;62.45;100914.41;5103756;28;20047;-58
2023/08/31 06:40:59;;;;;;;2.90;1.77;;;;;;;15.62;62.29;100920.41;5101568;28;20048;-58
2023/08/31 06:43:27;;;;;;;4.95;1.90;;;;;;;15.64;62.51;100920.16;5101950;28;20078;-58
2023/08/31 06:45:55;;;;;;;3.40;2.03;;;;;;;15.65;62.57;100921.78;5097845;28;20116;-59
2023/08/31 06:48:30;;;;;;;2.60;1.70;;;;;;;15.68;62.86;100923.16;5102313;28;20047;-58
2023/08/31 06:50:57;;;;;;;4.53;2.20;;;;;;;15.69;62.84;100919.38;5102788;28;20071;-58
2023/08/31 06:53:25;;;;;;;3.45;1.83;;;;;;;15.73;62.88;100929.47;5096374;28;20045;-58
2023/08/31 06:55:53;;;;;;;3.40;1.90;;;;;;;15.75;62.78;100931.94;5100619;28;20043;-57
2023/08/31 06:58:21;;;;;;;5.43;2.03;;;;;;;15.79;62.79;100933.88;5103473;28;20052;-58
2023/08/31 07:00:49;;;;;;;4.25;1.95;;;;;;;15.82;62.79;100935.25;5101404;28;20047;-58
2023/08/31 07:03:16;;;;;;;5.43;2.13;;;;;;;15.84;62.88;100943.94;5096939;28;20049;-57
2023/08/31 07:05:46;;;;;;;5.80;1.98;;;;;;;15.86;63.04;100934.50;5100664;28;20059;-58
2023/08/31 07:08:14;;;;;;;6.28;2.20;;;;;;;15.89;63.02;100947.53;5096343;28;20051;-58
2023/08/31 07:10:42;;;;;;;4.85;1.52;;;;;;;15.92;62.88;100947.03;5101303;28;20052;-58
2023/08/31 07:13:10;;;;;;;6.38;2.42;;;;;;;15.95;63.33;100948.41;5096667;28;20123;-58
2023/08/31 07:15:38;;;;;;;5.28;2.28;;;;;;;15.98;63.17;100947.91;5099797;28;20048;-58
2023/08/31 07:18:07;;;;;;;4.70;2.05;;;;;;;15.99;63.34;100951.44;5095915;28;20105;-57
2023/08/31 07:20:35;;;;;;;6.80;2.47;;;;;;;16.03;63.30;100958.81;5096518;28;20048;-58
2023/08/31 07:23:05;;;;;;;5.65;2.17;;;;;;;16.03;63.20;100945.25;5100882;28;20048;-58
2023/08/31 07:25:32;;;;;;;6.03;2.22;;;;;;;16.04;63.35;100957.72;5101468;28;20048;-58
2023/08/31 07:28:00;;;;;;;7.22;2.28;;;;;;;16.06;63.48;100961.00;5096792;28;20074;-58
2023/08/31 07:30:29;;;;;;;4.88;2.20;;;;;;;16.08;63.59;100956.13;5101150;28;20048;-58
2023/08/31 07:32:59;;;;;;;6.43;2.15;;;;;;;16.09;63.52;100952.34;5100973;28;20073;-58
2023/08/31 07:35:27;;;;;;;5.68;2.25;;;;;;;16.09;63.64;100957.78;5101728;28;20052;-58
2023/08/31 07:37:55;;;;;;;6.68;2.30;;;;;;;16.09;63.58;100952.34;5095261;28;20063;-58
2023/08/31 07:40:25;;;;;;;4.18;2.20;;;;;;;16.10;63.76;100967.53;5100733;28;20044;-58
2023/08/31 07:42:52;;;;;;;5.88;2.25;;;;;;;16.10;63.81;100956.69;5100683;28;20704;-58
2023/08/31 07:45:20;;;;;;;5.13;2.47;;;;;;;16.09;64.08;100957.78;5087938;28;20052;-58
2023/08/31 07:47:48;;;;;;;3.28;1.80;;;;;;;16.05;63.76;100948.53;5100836;28;20096;-58
2023/08/31 07:50:16;;;;;;;7.15;2.35;;;;;;;16.11;64.00;100960.22;5091898;28;20465;-57
2023/08/31 07:52:44;;;;;;;4.43;2.30;;;;;;;16.10;64.10;100956.69;5101188;28;20054;-58
2023/08/31 07:55:12;;;;;;;5.80;2.13;;;;;;;16.10;64.27;100955.88;5100417;28;20501;-58
2023/08/31 07:57:41;;;;;;;4.20;1.85;;;;;;;16.09;64.40;100957.78;5098977;28;20154;-58
2023/08/31 08:00:09;;;;;;;5.82;2.08;;;;;;;16.10;64.46;100956.69;5100959;28;20045;-58
2023/08/31 08:02:37;;;;;;;6.70;2.20;;;;;;;16.11;64.59;100968.38;5094067;28;20512;-58
2023/08/31 08:05:06;;;;;;;6.75;2.47;;;;;;;16.11;64.78;100977.31;5100912;28;20048;-58
2023/08/31 08:07:33;;;;;;;5.10;1.90;;;;;;;16.13;64.82;100974.34;5098947;28;20057;-58
2023/08/31 08:10:02;;;;;;;6.63;2.20;;;;;;;16.14;64.88;100973.28;5094540;28;20048;-58
2023/08/31 08:12:37;;;;;;;5.60;2.40;;;;;;;16.03;64.89;100949.84;5097214;28;20093;-58
2023/08/31 08:15:08;;;;;;;6.32;2.10;;;;;;;16.17;64.63;100967.34;5096798;28;20048;-59
2023/08/31 08:17:36;;;;;;;4.70;2.83;;;;;;;16.18;64.99;100969.81;5101098;28;20112;-58
2023/08/31 08:20:06;;;;;;;6.85;2.88;;;;;;;16.20;65.04;100975.78;5101610;28;20123;-58
2023/08/31 08:22:34;;;;;;;5.63;2.05;;;;;;;16.20;65.18;100964.13;5100342;28;20124;-58
2023/08/31 08:25:02;;;;;;;8.52;2.45;;;;;;;16.26;65.07;100973.94;5102319;28;20109;-58
2023/08/31 08:27:31;;;;;;;5.63;2.38;;;;;;;16.13;65.32;100953.47;5105321;28;20055;-58
2023/08/31 08:29:59;;;;;;;7.13;2.17;;;;;;;16.27;65.21;100976.41;5104122;28;20051;-58
2023/08/31 08:32:28;;;;;;;5.55;2.30;;;;;;;16.30;65.38;100979.69;5104724;28;20052;-58
2023/08/31 08:34:56;;;;;;;5.68;2.35;;;;;;;16.30;65.19;100988.63;5094380;28;20555;-58
2023/08/31 08:37:25;;;;;;;4.85;2.25;;;;;;;16.32;65.55;100981.06;5097044;28;20049;-58
2023/08/31 08:39:53;;;;;;;4.35;2.13;;;;;;;16.33;65.37;100990.84;5104466;28;20055;-58
2023/08/31 08:42:24;;;;;;;7.00;2.30;;;;;;;16.33;65.42;100988.13;5103368;28;20294;-57
2023/08/31 08:44:52;;;;;;;7.45;2.40;;;;;;;16.35;65.55;100998.72;5096496;28;20146;-59
2023/08/31 08:47:20;;;;;;;5.60;2.65;;;;;;;16.34;65.49;100994.38;5104331;28;20048;-58
2023/08/31 08:49:50;;;;;;;11.05;2.70;;;;;;;16.36;65.48;100994.94;5104779;28;20052;-58
2023/08/31 08:52:19;;;;;;;6.35;2.10;;;;;;;16.37;65.41;101002.81;5100458;28;20055;-58
2023/08/31 08:54:48;;;;;;;6.93;2.08;;;;;;;16.38;65.63;101001.72;5101636;28;20074;-58
2023/08/31 08:57:16;;;;;;;7.20;2.13;;;;;;;16.38;65.60;101009.88;5104491;28;20070;-58
2023/08/31 08:59:43;;;;;;;7.85;2.33;;;;;;;16.40;65.57;101004.19;5104329;28;20048;-58
2023/08/31 09:02:12;;;;;;;6.97;2.78;;;;;;;16.39;65.75;101002.56;5103279;28;20074;-58
2023/08/31 09:04:40;;;;;;;6.88;2.00;;;;;;;16.40;65.75;100999.59;5102096;28;20040;-58
2023/08/31 09:07:09;;;;;;;7.65;1.98;;;;;;;16.41;65.71;101009.34;5100350;28;20471;-59
2023/08/31 09:09:50;;;;;;;3.80;1.90;;;;;;;16.41;65.71;101006.66;5105341;28;20137;-58
2023/08/31 09:12:18;;;;;;;5.05;2.20;;;;;;;16.42;65.73;101007.47;5097717;28;20152;-58
2023/08/31 09:14:57;;;;;;;4.57;2.47;;;;;;;16.44;65.75;101008.03;5101608;28;20040;-58
2023/08/31 09:17:25;;;;;;;6.88;2.25;;;;;;;16.44;65.84;101008.84;5100416;28;20044;-58
2023/08/31 09:20:03;;;;;;;4.13;2.10;;;;;;;16.44;65.90;101005.31;5104457;28;20115;-58
2023/08/31 09:22:34;;;;;;;5.13;1.85;;;;;;;16.47;66.07;101011.03;5103073;28;20048;-59
2023/08/31 09:25:02;;;;;;;4.78;2.10;;;;;;;16.50;65.94;101017.84;5097981;28;20050;-58
2023/08/31 09:27:32;;;;;;;6.32;2.17;;;;;;;16.52;65.90;101004.84;5104230;28;20171;-58
2023/08/31 09:30:01;;;;;;;3.97;2.03;;;;;;;16.59;66.11;101013.59;5102504;28;20060;-58
2023/08/31 09:32:29;;;;;;;9.10;2.40;;;;;;;16.58;66.01;101009.25;5100155;28;20458;-58
2023/08/31 09:35:02;;;;;;;4.63;1.70;;;;;;;16.63;65.90;101013.91;5098200;28;20075;-58
2023/08/31 09:37:55;;;;;;;;;;;;;;;16.64;66.13;101019.06;5104677;28;20044;-58
2023/08/31 09:40:23;;;;;;;6.15;2.22;;;;;;;16.64;65.95;101018.25;5104316;28;20357;-58
2023/08/31 09:42:51;;;;;;;4.97;1.90;;;;;;;16.64;65.93;101027.22;5099820;28;20052;-58
2023/08/31 09:45:19;;;;;;;5.05;2.10;;;;;;;16.66;66.05;101022.38;5102662;28;20056;-59
2023/08/31 09:47:56;;;;;;;6.13;2.20;;;;;;;16.67;65.98;101013.16;5099340;28;20048;-58
2023/08/31 09:50:24;;;;;;;7.28;2.17;;;;;;;16.69;65.89;101019.16;5098435;28;20075;-58
2023/08/31 09:52:56;;;;;;;6.75;2.17;;;;;;;16.70;65.88;101026.22;5103171;28;20048;-58
2023/08/31 09:55:29;;;;;;;3.60;2.22;;;;;;;16.71;65.64;101025.13;5098213;28;20060;-58
2023/08/31 09:57:58;;;;;;;3.92;2.10;;;;;;;16.74;65.75;101019.19;5103700;28;20097;-58
2023/08/31 10:00:43;;;;;;;5.40;2.28;;;;;;;16.67;65.69;101006.91;5099642;28;20099;-58
2023/08/31 10:03:14;;;;;;;6.00;2.05;;;;;;;16.79;65.62;101018.41;5101496;28;20048;-59
2023/08/31 10:05:45;;;;;;;5.30;2.03;;;;;;;16.79;65.51;101032.81;5103479;28;20070;-58
2023/08/31 10:08:15;;;;;;;5.03;1.80;;;;;;;16.80;65.26;101026.31;5104110;28;20048;-58
2023/08/31 10:10:44;;;;;;;5.32;2.15;;;;;;;16.79;64.97;101023.84;5101940;28;20462;-58
2023/08/31 10:13:13;;;;;;;9.05;1.88;;;;;;;16.84;64.96;101032.84;5101211;28;20218;-58
2023/08/31 10:15:44;;;;;;;5.22;2.10;;;;;;;16.86;65.29;101024.44;5101364;28;20044;-58
2023/08/31 10:18:12;;;;;;;4.65;1.88;;;;;;;16.89;65.20;101026.63;5096124;28;20044;-59
2023/08/31 10:20:43;;;;;;;5.18;1.90;;;;;;;16.89;65.22;101019.31;5101314;28;20051;-59
2023/08/31 10:23:13;;;;;;;7.03;1.90;;;;;;;16.96;65.25;101021.00;5102046;28;20051;-58
2023/08/31 10:26:03;;;;;;;5.45;1.73;;;;;;;16.99;65.48;101015.88;5103619;28;20063;-59
2023/08/31 10:28:40;;;;;;;7.20;1.80;;;;;;;17.03;65.42;101032.44;5095841;28;20048;-58
2023/08/31 10:31:09;;;;;;;5.35;2.20;;;;;;;17.05;65.37;101017.53;5101057;28;20048;-59
2023/08/31 10:33:41;;;;;;;7.03;1.80;;;;;;;17.08;64.67;101013.47;5100339;28;20074;-59
2023/08/31 10:36:14;;;;;;;3.53;1.63;;;;;;;17.09;64.09;101021.38;5102836;28;20063;-59
2023/08/31 10:38:45;;;;;;;3.80;1.80;;;;;;;17.12;64.17;101018.13;5100962;28;20044;-58
2023/08/31 10:41:25;;;;;;;8.13;2.22;;;;;;;17.13;63.53;101016.22;5096360;28;20074;-59
2023/08/31 10:43:57;;;;;;;6.15;2.13;;;;;;;17.14;62.59;101005.09;5100191;28;20052;-59
2023/08/31 10:46:29;;;;;;;4.63;2.00;;;;;;;17.16;62.57;101007.56;5101384;28;20052;-58
2023/08/31 10:48:59;;;;;;;5.90;1.80;;;;;;;17.16;62.95;101007.56;5100412;28;20776;-58
2023/08/31 10:51:28;;;;;;;7.13;2.00;;;;;;;17.18;63.21;101014.38;5096179;28;20060;-58
2023/08/31 10:54:07;;;;;;;5.70;2.28;;;;;;;17.23;63.59;101000.81;5098615;28;20055;-58
2023/08/31 10:56:52;;;;;;;3.05;1.40;;;;;;;17.27;63.81;100992.97;5096643;28;20049;-58
2023/08/31 10:59:21;;;;;;;7.75;2.13;;;;;;;17.31;63.56;100991.34;5097774;28;20458;-59
2023/08/31 11:01:59;;;;;;;4.22;1.75;;;;;;;17.31;63.34;100998.69;5093756;28;20059;-58
2023/08/31 11:04:28;;;;;;;5.78;1.52;;;;;;;17.34;62.50;100988.09;5097304;28;20048;-59
2023/08/31 11:07:18;;;;;;;3.08;1.30;;;;;;;17.39;63.78;100992.72;5103116;28;20488;-59
2023/08/31 11:09:47;;;;;;;4.13;1.55;;;;;;;17.44;63.93;100990.03;5096304;28;20052;-58
2023/08/31 11:12:16;;;;;;;2.67;1.35;;;;;;;17.47;63.84;100994.94;5099374;28;20075;-58
2023/08/31 11:14:44;;;;;;;4.63;2.08;;;;;;;17.51;63.18;100996.06;5095758;28;20052;-59
2023/08/31 11:17:12;;;;;;;6.35;2.00;;;;;;;17.52;63.65;100997.69;5100186;28;20052;-58
2023/08/31 11:19:40;;;;;;;4.30;1.27;;;;;;;17.59;63.73;100992.84;5096871;28;20049;-59
2023/08/31 11:22:09;;;;;;;4.85;2.20;;;;;;;17.62;63.83;100996.91;5102863;28;20051;-58
2023/08/31 11:24:38;;;;;;;4.88;2.28;;;;;;;17.58;62.92;100988.47;5099343;28;20052;-59
2023/08/31 11:27:09;;;;;;;3.53;1.33;;;;;;;17.62;62.55;100995.03;5101686;28;20047;-59
2023/08/31 11:29:43;;;;;;;4.72;2.05;;;;;;;17.63;62.57;100991.22;5098408;28;20036;-58
2023/08/31 11:32:11;;;;;;;4.38;1.90;;;;;;;17.66;62.67;100984.47;5100188;28;20055;-58
2023/08/31 11:34:42;;;;;;;7.00;1.80;;;;;;;17.68;62.95;100985.84;5097057;28;20048;-57
2023/08/31 11:37:10;;;;;;;3.20;1.70;;;;;;;17.71;63.50;100979.06;5103270;28;20059;-58